Wing River, Minnesota
Current Conditions -  °F | °C
As of 6:13 AM on Friday 28 Nov 2014 (Local Time) from KSAZ Reporting Station
Light Snow Light Snow  
Wind Chill:   Ceiling: 4800
Heat Index:   Visibility: 7mi
Dew Point:   Wind: 3mph
Humidity: 85%   Direction: 120°ESE
Pressure: 29.98"   Gusts: NA
Location:  46.4671°N, 94.8901°W
Report Text: KSAZ 281213Z AUTO 12003KT 7SM -SN OVC048 M14/M16 A2998 RMK AO2
Loading
Personal Weather Stations






























Interactive Weather Map New forecast layout! Learn more

10-Day Weather Forecast

Advertisements
Track Severe Weather on mobile